sensor_id;sensor_type;location;lat;lon;timestamp;pressure;altitude;pressure_sealevel;temperature;humidity
52693;BME280;68218;51.012;-1.648;2023-05-17T00:01:54;101796.78;;;10.32;68.12
52693;BME280;68218;51.012;-1.648;2023-05-17T00:04:20;101810.09;;;10.26;68.15
52693;BME280;68218;51.012;-1.648;2023-05-17T00:06:46;101820.25;;;10.24;68.26
52693;BME280;68218;51.012;-1.648;2023-05-17T00:09:11;101810.97;;;10.20;68.49
52693;BME280;68218;51.012;-1.648;2023-05-17T00:11:37;101811.13;;;10.25;68.50
52693;BME280;68218;51.012;-1.648;2023-05-17T00:14:02;101813.88;;;10.19;68.71
52693;BME280;68218;51.012;-1.648;2023-05-17T00:16:28;101818.06;;;10.15;69.28
52693;BME280;68218;51.012;-1.648;2023-05-17T00:18:53;101812.22;;;10.18;69.11
52693;BME280;68218;51.012;-1.648;2023-05-17T00:21:18;101813.88;;;10.19;69.20
52693;BME280;68218;51.012;-1.648;2023-05-17T00:23:44;101813.72;;;10.13;69.73
52693;BME280;68218;51.012;-1.648;2023-05-17T00:26:09;101813.28;;;10.17;69.12
52693;BME280;68218;51.012;-1.648;2023-05-17T00:28:35;101812.63;;;10.21;69.91
52693;BME280;68218;51.012;-1.648;2023-05-17T00:31:00;101814.31;;;10.16;69.67
52693;BME280;68218;51.012;-1.648;2023-05-17T00:33:26;101821.75;;;10.20;70.75
52693;BME280;68218;51.012;-1.648;2023-05-17T00:35:51;101826.38;;;10.13;70.47
52693;BME280;68218;51.012;-1.648;2023-05-17T00:38:17;101825.28;;;9.96;70.39
52693;BME280;68218;51.012;-1.648;2023-05-17T00:40:42;101826.56;;;9.86;71.83
52693;BME280;68218;51.012;-1.648;2023-05-17T00:43:07;101822.84;;;9.87;71.63
52693;BME280;68218;51.012;-1.648;2023-05-17T00:45:33;101821.00;;;9.81;71.31
52693;BME280;68218;51.012;-1.648;2023-05-17T00:47:58;101828.06;;;9.82;71.72
52693;BME280;68218;51.012;-1.648;2023-05-17T00:50:24;101826.84;;;9.71;72.89
52693;BME280;68218;51.012;-1.648;2023-05-17T00:52:49;101830.56;;;9.77;72.53
52693;BME280;68218;51.012;-1.648;2023-05-17T00:55:14;101837.88;;;9.70;72.96
52693;BME280;68218;51.012;-1.648;2023-05-17T00:57:40;101832.72;;;9.68;72.00
52693;BME280;68218;51.012;-1.648;2023-05-17T01:00:06;101834.75;;;9.66;73.06
52693;BME280;68218;51.012;-1.648;2023-05-17T01:02:32;101834.59;;;9.61;73.48
52693;BME280;68218;51.012;-1.648;2023-05-17T01:04:58;101833.81;;;9.54;73.29
52693;BME280;68218;51.012;-1.648;2023-05-17T01:07:24;101830.91;;;9.55;72.77
52693;BME280;68218;51.012;-1.648;2023-05-17T01:09:49;101834.19;;;9.57;72.76
52693;BME280;68218;51.012;-1.648;2023-05-17T01:12:41;101830.13;;;9.48;73.81
52693;BME280;68218;51.012;-1.648;2023-05-17T01:17:53;101838.44;;;9.40;73.77
52693;BME280;68218;51.012;-1.648;2023-05-17T01:22:57;101826.09;;;9.26;75.03
52693;BME280;68218;51.012;-1.648;2023-05-17T01:28:10;101826.31;;;9.24;75.12
52693;BME280;68218;51.012;-1.648;2023-05-17T01:30:37;101826.69;;;9.28;74.79
52693;BME280;68218;51.012;-1.648;2023-05-17T01:33:03;101831.47;;;9.26;74.79
52693;BME280;68218;51.012;-1.648;2023-05-17T01:35:28;101831.72;;;9.17;74.81
52693;BME280;68218;51.012;-1.648;2023-05-17T01:37:54;101825.34;;;9.05;75.16
52693;BME280;68218;51.012;-1.648;2023-05-17T01:40:20;101829.69;;;9.06;76.07
52693;BME280;68218;51.012;-1.648;2023-05-17T01:42:52;101826.19;;;8.99;75.48
52693;BME280;68218;51.012;-1.648;2023-05-17T01:45:32;101832.19;;;8.94;76.51
52693;BME280;68218;51.012;-1.648;2023-05-17T01:48:22;101834.69;;;8.96;75.73
52693;BME280;68218;51.012;-1.648;2023-05-17T01:50:49;101831.81;;;8.91;76.20
52693;BME280;68218;51.012;-1.648;2023-05-17T01:53:29;101830.38;;;8.88;76.56
52693;BME280;68218;51.012;-1.648;2023-05-17T01:56:03;101825.41;;;8.85;76.57
52693;BME280;68218;51.012;-1.648;2023-05-17T01:58:29;101831.88;;;8.77;76.86
52693;BME280;68218;51.012;-1.648;2023-05-17T02:00:56;101832.88;;;8.76;77.41
52693;BME280;68218;51.012;-1.648;2023-05-17T02:03:23;101834.09;;;8.80;77.32
52693;BME280;68218;51.012;-1.648;2023-05-17T02:05:49;101824.22;;;8.74;77.04
52693;BME280;68218;51.012;-1.648;2023-05-17T02:08:14;101833.91;;;8.82;76.95
52693;BME280;68218;51.012;-1.648;2023-05-17T02:10:40;101834.56;;;8.77;77.09
52693;BME280;68218;51.012;-1.648;2023-05-17T02:13:05;101842.81;;;8.83;76.98
52693;BME280;68218;51.012;-1.648;2023-05-17T02:15:31;101850.47;;;8.79;76.95
52693;BME280;68218;51.012;-1.648;2023-05-17T02:17:56;101847.16;;;8.77;77.17
52693;BME280;68218;51.012;-1.648;2023-05-17T02:20:22;101845.72;;;8.74;77.33
52693;BME280;68218;51.012;-1.648;2023-05-17T02:22:47;101844.88;;;8.74;77.42
52693;BME280;68218;51.012;-1.648;2023-05-17T02:25:13;101839.09;;;8.70;77.64
52693;BME280;68218;51.012;-1.648;2023-05-17T02:27:38;101847.63;;;8.67;77.81
52693;BME280;68218;51.012;-1.648;2023-05-17T02:30:04;101846.53;;;8.75;77.47
52693;BME280;68218;51.012;-1.648;2023-05-17T02:32:31;101847.38;;;8.69;77.78
52693;BME280;68218;51.012;-1.648;2023-05-17T02:34:57;101851.53;;;8.71;77.72
52693;BME280;68218;51.012;-1.648;2023-05-17T02:37:22;101846.56;;;8.68;77.72
52693;BME280;68218;51.012;-1.648;2023-05-17T02:39:47;101847.81;;;8.66;77.96
52693;BME280;68218;51.012;-1.648;2023-05-17T02:42:13;101848.63;;;8.66;77.84
52693;BME280;68218;51.012;-1.648;2023-05-17T02:44:39;101845.97;;;8.59;78.05
52693;BME280;68218;51.012;-1.648;2023-05-17T02:47:05;101853.00;;;8.60;78.29
52693;BME280;68218;51.012;-1.648;2023-05-17T02:49:30;101859.81;;;8.63;78.18
52693;BME280;68218;51.012;-1.648;2023-05-17T02:51:55;101851.13;;;8.68;77.91
52693;BME280;68218;51.012;-1.648;2023-05-17T02:54:21;101853.59;;;8.69;77.70
52693;BME280;68218;51.012;-1.648;2023-05-17T02:56:46;101852.56;;;8.70;77.74
52693;BME280;68218;51.012;-1.648;2023-05-17T02:59:12;101853.81;;;8.74;77.35
52693;BME280;68218;51.012;-1.648;2023-05-17T03:01:37;101862.06;;;8.73;77.35
52693;BME280;68218;51.012;-1.648;2023-05-17T03:04:02;101855.44;;;8.75;77.14
52693;BME280;68218;51.012;-1.648;2023-05-17T03:06:28;101858.53;;;8.79;76.98
52693;BME280;68218;51.012;-1.648;2023-05-17T03:08:53;101858.97;;;8.83;76.62
52693;BME280;68218;51.012;-1.648;2023-05-17T03:11:19;101857.72;;;8.78;76.84
52693;BME280;68218;51.012;-1.648;2023-05-17T03:13:44;101854.41;;;8.83;76.62
52693;BME280;68218;51.012;-1.648;2023-05-17T03:16:10;101855.41;;;8.89;76.78
52693;BME280;68218;51.012;-1.648;2023-05-17T03:18:36;101860.78;;;8.89;76.37
52693;BME280;68218;51.012;-1.648;2023-05-17T03:21:01;101857.69;;;8.85;76.69
52693;BME280;68218;51.012;-1.648;2023-05-17T03:23:27;101859.56;;;8.85;76.56
52693;BME280;68218;51.012;-1.648;2023-05-17T03:25:52;101856.88;;;8.85;76.44
52693;BME280;68218;51.012;-1.648;2023-05-17T03:28:17;101855.41;;;8.89;76.38
52693;BME280;68218;51.012;-1.648;2023-05-17T03:30:43;101864.09;;;8.91;76.50
52693;BME280;68218;51.012;-1.648;2023-05-17T03:33:08;101853.53;;;8.96;76.32
52693;BME280;68218;51.012;-1.648;2023-05-17T03:35:33;101866.38;;;8.94;76.41
52693;BME280;68218;51.012;-1.648;2023-05-17T03:37:59;101855.19;;;8.97;75.92
52693;BME280;68218;51.012;-1.648;2023-05-17T03:40:24;101860.97;;;8.94;76.57
52693;BME280;68218;51.012;-1.648;2023-05-17T03:42:50;101864.09;;;8.91;77.25
52693;BME280;68218;51.012;-1.648;2023-05-17T03:45:16;101863.06;;;8.85;77.06
52693;BME280;68218;51.012;-1.648;2023-05-17T03:47:41;101866.16;;;8.89;77.08
52693;BME280;68218;51.012;-1.648;2023-05-17T03:50:07;101859.16;;;8.88;77.51
52693;BME280;68218;51.012;-1.648;2023-05-17T03:52:32;101862.88;;;8.87;77.21
52693;BME280;68218;51.012;-1.648;2023-05-17T03:54:58;101843.66;;;8.70;78.14
52693;BME280;68218;51.012;-1.648;2023-05-17T03:57:23;101871.78;;;8.80;78.05
52693;BME280;68218;51.012;-1.648;2023-05-17T03:59:48;101854.00;;;8.66;78.12
52693;BME280;68218;51.012;-1.648;2023-05-17T04:02:15;101875.53;;;8.73;78.28
52693;BME280;68218;51.012;-1.648;2023-05-17T04:04:41;101881.53;;;8.68;78.40
52693;BME280;68218;51.012;-1.648;2023-05-17T04:07:12;101879.91;;;8.60;78.36
52693;BME280;68218;51.012;-1.648;2023-05-17T04:09:37;101887.72;;;8.42;78.73
52693;BME280;68218;51.012;-1.648;2023-05-17T04:12:03;101883.81;;;8.24;79.02
52693;BME280;68218;51.012;-1.648;2023-05-17T04:14:28;101897.63;;;8.15;79.34
52693;BME280;68218;51.012;-1.648;2023-05-17T04:16:54;101893.50;;;8.05;79.47
52693;BME280;68218;51.012;-1.648;2023-05-17T04:19:19;101904.03;;;8.00;80.13
52693;BME280;68218;51.012;-1.648;2023-05-17T04:21:45;101910.19;;;7.87;80.61
52693;BME280;68218;51.012;-1.648;2023-05-17T04:24:10;101904.19;;;7.85;80.54
52693;BME280;68218;51.012;-1.648;2023-05-17T04:26:36;101907.28;;;7.82;80.77
52693;BME280;68218;51.012;-1.648;2023-05-17T04:29:01;101914.69;;;7.74;80.80
52693;BME280;68218;51.012;-1.648;2023-05-17T04:31:26;101917.59;;;7.72;80.92
52693;BME280;68218;51.012;-1.648;2023-05-17T04:33:52;101917.56;;;7.65;81.41
52693;BME280;68218;51.012;-1.648;2023-05-17T04:36:17;101917.56;;;7.65;81.92
52693;BME280;68218;51.012;-1.648;2023-05-17T04:38:42;101920.88;;;7.61;81.82
52693;BME280;68218;51.012;-1.648;2023-05-17T04:41:08;101916.31;;;7.61;82.09
52693;BME280;68218;51.012;-1.648;2023-05-17T04:43:33;101926.88;;;7.63;82.04
52693;BME280;68218;51.012;-1.648;2023-05-17T04:45:59;101923.75;;;7.59;82.24
52693;BME280;68218;51.012;-1.648;2023-05-17T04:48:25;101932.44;;;7.61;81.93
52693;BME280;68218;51.012;-1.648;2023-05-17T04:50:52;101932.44;;;7.61;82.41
52693;BME280;68218;51.012;-1.648;2023-05-17T04:53:18;101925.19;;;7.62;82.12
52693;BME280;68218;51.012;-1.648;2023-05-17T04:55:44;101933.06;;;7.63;82.27
52693;BME280;68218;51.012;-1.648;2023-05-17T04:58:10;101939.88;;;7.66;82.76
52693;BME280;68218;51.012;-1.648;2023-05-17T05:00:35;101939.25;;;7.71;82.79
52693;BME280;68218;51.012;-1.648;2023-05-17T05:03:01;101942.38;;;7.74;82.39
52693;BME280;68218;51.012;-1.648;2023-05-17T05:05:29;101945.31;;;7.86;82.38
52693;BME280;68218;51.012;-1.648;2023-05-17T05:07:54;101945.94;;;7.95;82.08
52693;BME280;68218;51.012;-1.648;2023-05-17T05:10:20;101951.13;;;7.96;82.44
52693;BME280;68218;51.012;-1.648;2023-05-17T05:12:45;101937.91;;;8.01;82.17
52693;BME280;68218;51.012;-1.648;2023-05-17T05:15:11;101950.75;;;8.13;82.21
52693;BME280;68218;51.012;-1.648;2023-05-17T05:17:36;101949.50;;;8.09;81.23
52693;BME280;68218;51.012;-1.648;2023-05-17T05:20:02;101944.56;;;8.19;81.84
52693;BME280;68218;51.012;-1.648;2023-05-17T05:22:27;101945.41;;;8.19;80.99
52693;BME280;68218;51.012;-1.648;2023-05-17T05:24:54;101945.81;;;8.23;81.04
52693;BME280;68218;51.012;-1.648;2023-05-17T05:27:19;101947.88;;;8.34;81.00
52693;BME280;68218;51.012;-1.648;2023-05-17T05:29:45;101952.50;;;8.47;81.13
52693;BME280;68218;51.012;-1.648;2023-05-17T05:32:10;101949.81;;;8.54;81.15
52693;BME280;68218;51.012;-1.648;2023-05-17T05:34:37;101956.22;;;8.59;80.15
52693;BME280;68218;51.012;-1.648;2023-05-17T05:37:03;101946.06;;;8.61;80.08
52693;BME280;68218;51.012;-1.648;2023-05-17T05:39:28;101949.16;;;8.65;79.39
52693;BME280;68218;51.012;-1.648;2023-05-17T05:41:53;101955.81;;;8.69;80.00
52693;BME280;68218;51.012;-1.648;2023-05-17T05:44:19;101950.84;;;8.79;79.77
52693;BME280;68218;51.012;-1.648;2023-05-17T05:46:44;101954.75;;;8.84;80.72
52693;BME280;68218;51.012;-1.648;2023-05-17T05:49:10;101956.63;;;8.83;79.28
52693;BME280;68218;51.012;-1.648;2023-05-17T05:51:35;101961.56;;;8.99;80.18
52693;BME280;68218;51.012;-1.648;2023-05-17T05:54:01;101963.22;;;8.94;79.13
52693;BME280;68218;51.012;-1.648;2023-05-17T05:56:26;101961.16;;;8.96;80.42
52693;BME280;68218;51.012;-1.648;2023-05-17T05:58:56;101965.09;;;9.07;79.01
52693;BME280;68218;51.012;-1.648;2023-05-17T06:01:21;101973.97;;;9.14;78.79
52693;BME280;68218;51.012;-1.648;2023-05-17T06:03:47;101970.22;;;9.15;78.09
52693;BME280;68218;51.012;-1.648;2023-05-17T06:06:12;101971.69;;;9.24;78.95
52693;BME280;68218;51.012;-1.648;2023-05-17T06:08:40;101972.28;;;9.33;78.23
52693;BME280;68218;51.012;-1.648;2023-05-17T06:11:06;101975.59;;;9.35;77.87
52693;BME280;68218;51.012;-1.648;2023-05-17T06:13:31;101978.25;;;9.42;77.89
52693;BME280;68218;51.012;-1.648;2023-05-17T06:15:56;101975.31;;;9.56;77.68
52693;BME280;68218;51.012;-1.648;2023-05-17T06:18:23;101980.47;;;9.65;78.13
52693;BME280;68218;51.012;-1.648;2023-05-17T06:20:49;101975.03;;;9.71;77.54
52693;BME280;68218;51.012;-1.648;2023-05-17T06:23:14;101983.94;;;9.79;76.78
52693;BME280;68218;51.012;-1.648;2023-05-17T06:25:39;101980.16;;;9.86;78.00
52693;BME280;68218;51.012;-1.648;2023-05-17T06:28:05;101988.19;;;10.00;77.23
52693;BME280;68218;51.012;-1.648;2023-05-17T06:30:30;101996.13;;;9.88;76.18
52693;BME280;68218;51.012;-1.648;2023-05-17T06:32:56;101998.38;;;9.98;77.57
52693;BME280;68218;51.012;-1.648;2023-05-17T06:35:21;101995.16;;;10.14;77.29
52693;BME280;68218;51.012;-1.648;2023-05-17T06:37:47;101999.66;;;10.27;76.25
52693;BME280;68218;51.012;-1.648;2023-05-17T06:40:12;102003.16;;;10.34;76.56
52693;BME280;68218;51.012;-1.648;2023-05-17T06:42:38;102003.56;;;10.38;75.69
52693;BME280;68218;51.012;-1.648;2023-05-17T06:45:03;101997.34;;;10.37;75.46
52693;BME280;68218;51.012;-1.648;2023-05-17T06:47:29;102000.34;;;10.54;75.29
52693;BME280;68218;51.012;-1.648;2023-05-17T06:49:54;102003.28;;;10.46;75.39
52693;BME280;68218;51.012;-1.648;2023-05-17T06:52:20;101996.09;;;10.65;74.62
52693;BME280;68218;51.012;-1.648;2023-05-17T06:54:45;102002.16;;;10.85;74.27
52693;BME280;68218;51.012;-1.648;2023-05-17T06:57:11;102006.13;;;10.83;73.77
52693;BME280;68218;51.012;-1.648;2023-05-17T06:59:36;101999.69;;;11.09;73.00
52693;BME280;68218;51.012;-1.648;2023-05-17T07:02:02;102002.72;;;11.38;72.86
52693;BME280;68218;51.012;-1.648;2023-05-17T07:04:27;102001.34;;;11.29;72.64
52693;BME280;68218;51.012;-1.648;2023-05-17T07:06:53;102003.00;;;11.30;71.91
52693;BME280;68218;51.012;-1.648;2023-05-17T07:09:21;102005.25;;;11.88;70.63
52693;BME280;68218;51.012;-1.648;2023-05-17T07:11:47;102011.88;;;11.74;70.64
52693;BME280;68218;51.012;-1.648;2023-05-17T07:14:12;102016.28;;;11.68;70.62
52693;BME280;68218;51.012;-1.648;2023-05-17T07:16:38;102001.41;;;11.96;70.09
52693;BME280;68218;51.012;-1.648;2023-05-17T07:19:03;102003.94;;;12.09;69.25
52693;BME280;68218;51.012;-1.648;2023-05-17T07:21:29;102007.84;;;12.44;68.57
52693;BME280;68218;51.012;-1.648;2023-05-17T07:23:55;102010.22;;;12.22;68.72
52693;BME280;68218;51.012;-1.648;2023-05-17T07:26:20;102009.50;;;12.14;69.17
52693;BME280;68218;51.012;-1.648;2023-05-17T07:28:47;102012.63;;;12.30;68.70
52693;BME280;68218;51.012;-1.648;2023-05-17T07:31:12;102008.94;;;12.54;68.45
52693;BME280;68218;51.012;-1.648;2023-05-17T07:33:38;102018.38;;;12.64;68.09
52693;BME280;68218;51.012;-1.648;2023-05-17T07:36:04;102020.41;;;13.04;67.46
52693;BME280;68218;51.012;-1.648;2023-05-17T07:38:30;102016.66;;;13.05;67.71
52693;BME280;68218;51.012;-1.648;2023-05-17T07:40:56;102024.72;;;12.69;66.68
52693;BME280;68218;51.012;-1.648;2023-05-17T07:43:21;102021.19;;;12.69;66.76
52693;BME280;68218;51.012;-1.648;2023-05-17T07:45:47;102024.28;;;12.84;67.11
52693;BME280;68218;51.012;-1.648;2023-05-17T07:48:12;102026.91;;;13.03;66.55
52693;BME280;68218;51.012;-1.648;2023-05-17T07:50:38;102030.78;;;13.19;66.11
52693;BME280;68218;51.012;-1.648;2023-05-17T07:53:04;102034.06;;;13.09;65.78
52693;BME280;68218;51.012;-1.648;2023-05-17T07:55:29;102027.41;;;13.35;65.65
52693;BME280;68218;51.012;-1.648;2023-05-17T07:57:55;102029.94;;;13.65;64.47
52693;BME280;68218;51.012;-1.648;2023-05-17T08:00:20;102025.06;;;13.79;65.44
52693;BME280;68218;51.012;-1.648;2023-05-17T08:02:46;102030.69;;;13.90;63.26
52693;BME280;68218;51.012;-1.648;2023-05-17T08:05:12;102021.53;;;13.79;64.60
52693;BME280;68218;51.012;-1.648;2023-05-17T08:07:37;102010.84;;;13.60;65.17
52693;BME280;68218;51.012;-1.648;2023-05-17T08:10:03;102031.81;;;13.29;64.49
52693;BME280;68218;51.012;-1.648;2023-05-17T08:12:29;102029.88;;;13.37;64.87
52693;BME280;68218;51.012;-1.648;2023-05-17T08:14:54;102028.53;;;13.27;65.64
52693;BME280;68218;51.012;-1.648;2023-05-17T08:17:20;102029.72;;;13.55;66.06
52693;BME280;68218;51.012;-1.648;2023-05-17T08:19:46;102029.56;;;13.74;64.80
52693;BME280;68218;51.012;-1.648;2023-05-17T08:22:11;102030.88;;;13.71;63.04
52693;BME280;68218;51.012;-1.648;2023-05-17T08:24:37;102030.81;;;14.23;63.00
52693;BME280;68218;51.012;-1.648;2023-05-17T08:27:02;102024.59;;;15.03;61.68
52693;BME280;68218;51.012;-1.648;2023-05-17T08:29:28;102028.38;;;15.19;60.23
52693;BME280;68218;51.012;-1.648;2023-05-17T08:31:53;102027.22;;;15.14;60.43
52693;BME280;68218;51.012;-1.648;2023-05-17T08:34:19;102022.78;;;14.91;61.08
52693;BME280;68218;51.012;-1.648;2023-05-17T08:36:44;102023.19;;;14.83;61.63
52693;BME280;68218;51.012;-1.648;2023-05-17T08:39:10;102023.38;;;14.76;60.60
52693;BME280;68218;51.012;-1.648;2023-05-17T08:41:37;102023.44;;;14.82;59.95
52693;BME280;68218;51.012;-1.648;2023-05-17T08:44:03;102022.06;;;14.96;58.92
52693;BME280;68218;51.012;-1.648;2023-05-17T08:46:31;102030.28;;;14.67;59.90
52693;BME280;68218;51.012;-1.648;2023-05-17T08:48:57;102023.59;;;15.26;61.49
52693;BME280;68218;51.012;-1.648;2023-05-17T08:51:24;102022.28;;;15.50;57.67
52693;BME280;68218;51.012;-1.648;2023-05-17T08:53:50;102007.84;;;15.89;56.16
52693;BME280;68218;51.012;-1.648;2023-05-17T08:56:16;102011.22;;;16.56;56.22
52693;BME280;68218;51.012;-1.648;2023-05-17T08:58:43;102005.38;;;15.87;56.93
52693;BME280;68218;51.012;-1.648;2023-05-17T09:01:11;101999.81;;;16.59;60.02
52693;BME280;68218;51.012;-1.648;2023-05-17T09:03:39;102003.88;;;17.26;57.21
52693;BME280;68218;51.012;-1.648;2023-05-17T09:06:06;101996.41;;;17.11;53.86
52693;BME280;68218;51.012;-1.648;2023-05-17T09:08:32;101997.78;;;17.62;53.22
52693;BME280;68218;51.012;-1.648;2023-05-17T09:10:58;101986.75;;;18.25;53.58
52693;BME280;68218;51.012;-1.648;2023-05-17T09:13:24;101999.81;;;18.02;55.32
52693;BME280;68218;51.012;-1.648;2023-05-17T09:15:49;101994.19;;;17.56;53.88
52693;BME280;68218;51.012;-1.648;2023-05-17T09:18:15;101995.78;;;16.99;53.27
52693;BME280;68218;51.012;-1.648;2023-05-17T09:20:41;101991.84;;;16.20;54.43
52693;BME280;68218;51.012;-1.648;2023-05-17T09:23:13;101998.84;;;16.43;53.22
52693;BME280;68218;51.012;-1.648;2023-05-17T09:25:46;101989.53;;;16.66;54.26
52693;BME280;68218;51.012;-1.648;2023-05-17T09:28:12;101982.09;;;16.89;55.19
52693;BME280;68218;51.012;-1.648;2023-05-17T09:30:38;101986.22;;;16.96;51.81
52693;BME280;68218;51.012;-1.648;2023-05-17T09:33:05;101986.34;;;16.15;53.34
52693;BME280;68218;51.012;-1.648;2023-05-17T09:35:32;101980.63;;;16.81;52.87
52693;BME280;68218;51.012;-1.648;2023-05-17T09:38:08;101976.78;;;16.77;50.51
52693;BME280;68218;51.012;-1.648;2023-05-17T09:40:44;101985.69;;;16.35;52.48
52693;BME280;68218;51.012;-1.648;2023-05-17T09:43:12;101974.75;;;16.29;52.27
52693;BME280;68218;51.012;-1.648;2023-05-17T09:45:38;101968.31;;;17.06;51.93
52693;BME280;68218;51.012;-1.648;2023-05-17T09:48:15;101961.09;;;18.31;49.29
52693;BME280;68218;51.012;-1.648;2023-05-17T09:50:45;101974.31;;;17.71;49.75
52693;BME280;68218;51.012;-1.648;2023-05-17T09:53:22;101971.25;;;17.47;49.06
52693;BME280;68218;51.012;-1.648;2023-05-17T09:55:48;101975.81;;;16.88;51.18
52693;BME280;68218;51.012;-1.648;2023-05-17T09:58:15;101981.69;;;15.88;52.49
52693;BME280;68218;51.012;-1.648;2023-05-17T10:00:42;101969.59;;;16.98;50.73
52693;BME280;68218;51.012;-1.648;2023-05-17T10:03:10;101969.06;;;17.49;47.35
52693;BME280;68218;51.012;-1.648;2023-05-17T10:05:38;101961.31;;;17.93;46.57
52693;BME280;68218;51.012;-1.648;2023-05-17T10:08:09;101965.78;;;17.47;48.17
52693;BME280;68218;51.012;-1.648;2023-05-17T10:10:35;101973.34;;;17.29;47.31
52693;BME280;68218;51.012;-1.648;2023-05-17T10:13:02;101974.41;;;17.91;46.10
52693;BME280;68218;51.012;-1.648;2023-05-17T10:15:31;101962.16;;;17.31;47.96
52693;BME280;68218;51.012;-1.648;2023-05-17T10:17:58;101951.88;;;17.48;51.16
52693;BME280;68218;51.012;-1.648;2023-05-17T10:20:25;101976.72;;;16.99;50.34
52693;BME280;68218;51.012;-1.648;2023-05-17T10:22:52;101968.59;;;16.72;51.69
52693;BME280;68218;51.012;-1.648;2023-05-17T10:25:19;101978.41;;;16.40;51.23
52693;BME280;68218;51.012;-1.648;2023-05-17T10:27:46;101964.91;;;18.45;47.63
52693;BME280;68218;51.012;-1.648;2023-05-17T10:30:15;101961.84;;;17.95;48.93
52693;BME280;68218;51.012;-1.648;2023-05-17T10:32:44;101965.41;;;17.91;48.11
52693;BME280;68218;51.012;-1.648;2023-05-17T10:35:11;101955.34;;;18.07;48.56
52693;BME280;68218;51.012;-1.648;2023-05-17T10:37:40;101955.34;;;18.22;49.41
52693;BME280;68218;51.012;-1.648;2023-05-17T10:40:07;101960.84;;;17.38;49.35
52693;BME280;68218;51.012;-1.648;2023-05-17T10:42:45;101957.38;;;17.00;51.29
52693;BME280;68218;51.012;-1.648;2023-05-17T10:45:12;101943.03;;;17.99;47.33
52693;BME280;68218;51.012;-1.648;2023-05-17T10:47:38;101941.44;;;18.49;45.46
52693;BME280;68218;51.012;-1.648;2023-05-17T10:50:10;101940.56;;;18.75;45.97
52693;BME280;68218;51.012;-1.648;2023-05-17T10:52:37;101926.88;;;19.71;44.50
52693;BME280;68218;51.012;-1.648;2023-05-17T10:55:03;101942.41;;;19.20;45.83
52693;BME280;68218;51.012;-1.648;2023-05-17T10:57:36;101939.25;;;18.15;46.85
52693;BME280;68218;51.012;-1.648;2023-05-17T11:00:03;101941.00;;;17.58;48.24
52693;BME280;68218;51.012;-1.648;2023-05-17T11:02:32;101948.44;;;17.10;49.06
52693;BME280;68218;51.012;-1.648;2023-05-17T11:04:58;101933.75;;;17.21;49.96
52693;BME280;68218;51.012;-1.648;2023-05-17T11:07:26;101931.44;;;17.61;47.97
52693;BME280;68218;51.012;-1.648;2023-05-17T11:12:38;101927.25;;;18.22;45.62
52693;BME280;68218;51.012;-1.648;2023-05-17T11:15:11;101936.50;;;18.10;47.06
52693;BME280;68218;51.012;-1.648;2023-05-17T11:22:41;101943.63;;;18.42;49.16
52693;BME280;68218;51.012;-1.648;2023-05-17T11:25:12;101941.69;;;18.89;47.55
52693;BME280;68218;51.012;-1.648;2023-05-17T11:27:45;101940.84;;;18.99;45.40
52693;BME280;68218;51.012;-1.648;2023-05-17T11:32:52;101935.41;;;19.64;44.60
52693;BME280;68218;51.012;-1.648;2023-05-17T11:35:21;101938.13;;;18.99;45.55
52693;BME280;68218;51.012;-1.648;2023-05-17T11:37:51;101932.94;;;18.66;50.00
52693;BME280;68218;51.012;-1.648;2023-05-17T11:40:24;101940.06;;;18.31;49.21
52693;BME280;68218;51.012;-1.648;2023-05-17T11:43:12;101923.94;;;20.07;43.74
52693;BME280;68218;51.012;-1.648;2023-05-17T11:45:49;101930.50;;;18.85;43.42
52693;BME280;68218;51.012;-1.648;2023-05-17T11:48:16;101927.78;;;17.25;48.03
52693;BME280;68218;51.012;-1.648;2023-05-17T11:50:44;101929.13;;;18.26;44.04
52693;BME280;68218;51.012;-1.648;2023-05-17T11:53:10;101925.47;;;19.13;42.89
52693;BME280;68218;51.012;-1.648;2023-05-17T11:55:38;101932.69;;;18.47;46.26
52693;BME280;68218;51.012;-1.648;2023-05-17T11:58:06;101925.31;;;18.38;48.84
52693;BME280;68218;51.012;-1.648;2023-05-17T12:00:33;101925.56;;;18.10;46.44
52693;BME280;68218;51.012;-1.648;2023-05-17T12:03:23;101920.38;;;17.20;47.68
52693;BME280;68218;51.012;-1.648;2023-05-17T12:06:05;101917.09;;;18.89;43.52
52693;BME280;68218;51.012;-1.648;2023-05-17T12:08:32;101916.22;;;19.09;44.68
52693;BME280;68218;51.012;-1.648;2023-05-17T12:10:59;101911.56;;;19.64;46.51
52693;BME280;68218;51.012;-1.648;2023-05-17T12:13:27;101911.13;;;18.30;45.61
52693;BME280;68218;51.012;-1.648;2023-05-17T12:15:59;101910.50;;;18.80;46.07
52693;BME280;68218;51.012;-1.648;2023-05-17T12:18:41;101910.50;;;17.77;48.12
52693;BME280;68218;51.012;-1.648;2023-05-17T12:21:08;101904.28;;;18.18;48.89
52693;BME280;68218;51.012;-1.648;2023-05-17T12:23:35;101904.28;;;19.44;44.84
52693;BME280;68218;51.012;-1.648;2023-05-17T12:31:15;101894.97;;;17.88;45.12
52693;BME280;68218;51.012;-1.648;2023-05-17T12:33:42;101903.72;;;18.00;46.85
52693;BME280;68218;51.012;-1.648;2023-05-17T12:36:09;101901.78;;;17.07;47.35
52693;BME280;68218;51.012;-1.648;2023-05-17T12:38:38;101907.91;;;16.81;47.02
52693;BME280;68218;51.012;-1.648;2023-05-17T12:41:04;101905.56;;;17.00;47.56
52693;BME280;68218;51.012;-1.648;2023-05-17T12:43:35;101908.13;;;18.32;43.83
52693;BME280;68218;51.012;-1.648;2023-05-17T12:46:09;101892.53;;;18.32;44.14
52693;BME280;68218;51.012;-1.648;2023-05-17T12:48:36;101898.00;;;18.17;43.64
52693;BME280;68218;51.012;-1.648;2023-05-17T12:51:19;101885.69;;;18.09;44.37
52693;BME280;68218;51.012;-1.648;2023-05-17T12:56:21;101898.25;;;18.46;44.18
52693;BME280;68218;51.012;-1.648;2023-05-17T13:01:33;101891.09;;;17.73;46.27
52693;BME280;68218;51.012;-1.648;2023-05-17T13:03:59;101907.34;;;17.32;49.31
52693;BME280;68218;51.012;-1.648;2023-05-17T13:06:24;101903.69;;;17.06;51.72
52693;BME280;68218;51.012;-1.648;2023-05-17T13:08:58;101904.22;;;17.03;51.77
52693;BME280;68218;51.012;-1.648;2023-05-17T13:11:24;101901.97;;;16.90;51.17
52693;BME280;68218;51.012;-1.648;2023-05-17T13:13:50;101900.97;;;17.11;51.60